METAR Data
IDs: Format: Raw Decoded Include TAF

Data at: 2339 UTC 25 Oct 2021

RKTU 252300Z 05001KT 3200 BR NSC 04/03 Q1023